createdAt,value
2023-04-13T00:01:19.624Z,14.70
2023-04-13T00:03:50.821Z,14.60
2023-04-13T00:06:22.810Z,15.00
2023-04-13T00:08:54.973Z,14.90
2023-04-13T00:11:27.843Z,15.10
2023-04-13T00:13:59.051Z,14.90
2023-04-13T00:16:31.700Z,14.90
2023-04-13T00:19:04.203Z,14.50
2023-04-13T00:21:36.554Z,14.40
2023-04-13T00:24:08.303Z,14.50
2023-04-13T00:26:39.268Z,14.60
2023-04-13T00:29:10.273Z,14.80
2023-04-13T00:31:41.178Z,14.80
2023-04-13T00:34:12.044Z,14.80
2023-04-13T00:36:42.971Z,15.00
2023-04-13T00:39:13.834Z,14.70
2023-04-13T00:41:44.727Z,14.70
2023-04-13T00:44:16.055Z,14.70
2023-04-13T00:46:50.366Z,14.30
2023-04-13T00:49:22.725Z,14.40
2023-04-13T00:51:53.602Z,14.80
2023-04-13T00:54:24.897Z,14.70
2023-04-13T00:56:57.438Z,15.00
2023-04-13T00:59:32.095Z,15.20
2023-04-13T01:02:05.650Z,14.70
2023-04-13T01:04:37.708Z,14.70
2023-04-13T01:07:58.517Z,14.90
2023-04-13T01:10:56.913Z,14.80
2023-04-13T01:13:56.508Z,15.00
2023-04-13T01:16:57.307Z,14.50
2023-04-13T01:19:51.868Z,14.60
2023-04-13T01:22:28.827Z,14.60
2023-04-13T01:25:27.328Z,14.30
2023-04-13T01:28:05.634Z,14.40
2023-04-13T01:30:38.851Z,14.40
2023-04-13T01:33:11.462Z,14.40
2023-04-13T01:35:43.378Z,14.30
2023-04-13T01:38:14.400Z,14.30
2023-04-13T01:40:46.056Z,14.30
2023-04-13T01:43:16.958Z,14.20
2023-04-13T01:46:16.115Z,14.10
2023-04-13T01:48:54.637Z,14.00
2023-04-13T01:51:32.289Z,13.90
2023-04-13T01:54:16.833Z,13.60
2023-04-13T01:56:48.974Z,13.60
2023-04-13T01:59:22.702Z,13.50
2023-04-13T02:01:54.641Z,13.50
2023-04-13T02:04:25.914Z,13.60
2023-04-13T02:06:56.926Z,13.50
2023-04-13T02:09:30.754Z,13.70
2023-04-13T02:12:01.673Z,13.90
2023-04-13T02:14:32.563Z,14.40
2023-04-13T02:17:03.479Z,14.50
2023-04-13T02:19:35.237Z,14.20
2023-04-13T02:22:06.148Z,14.40
2023-04-13T02:24:37.010Z,14.30
2023-04-13T02:27:08.084Z,14.50
2023-04-13T02:29:38.914Z,14.40
2023-04-13T02:32:09.859Z,14.50
2023-04-13T02:34:41.655Z,14.50
2023-04-13T02:37:12.579Z,14.30
2023-04-13T02:39:43.426Z,13.90
2023-04-13T02:42:14.752Z,13.60
2023-04-13T02:44:45.604Z,13.60
2023-04-13T02:47:17.520Z,13.80
2023-04-13T02:49:48.381Z,14.10
2023-04-13T02:52:19.279Z,14.00
2023-04-13T02:54:54.622Z,14.30
2023-04-13T02:57:25.617Z,14.20
2023-04-13T02:59:56.485Z,14.20
2023-04-13T03:02:30.015Z,14.30
2023-04-13T03:05:02.724Z,14.10
2023-04-13T03:07:33.999Z,14.00
2023-04-13T03:10:05.919Z,13.90
2023-04-13T03:12:37.048Z,14.30
2023-04-13T03:15:11.205Z,14.30
2023-04-13T03:17:44.120Z,14.20
2023-04-13T03:20:16.888Z,14.10
2023-04-13T03:22:47.821Z,14.10
2023-04-13T03:25:18.840Z,14.30
2023-04-13T03:27:50.691Z,14.30
2023-04-13T03:30:21.668Z,14.10
2023-04-13T03:32:52.734Z,14.30
2023-04-13T03:35:23.667Z,14.10
2023-04-13T03:37:55.072Z,14.10
2023-04-13T03:40:25.916Z,14.30
2023-04-13T03:42:56.836Z,14.00
2023-04-13T03:45:27.728Z,14.10
2023-04-13T03:47:58.777Z,14.30
2023-04-13T03:50:29.769Z,14.10
2023-04-13T03:53:00.697Z,13.80
2023-04-13T03:55:31.612Z,13.80
2023-04-13T03:58:02.491Z,14.10
2023-04-13T04:00:33.421Z,14.40
2023-04-13T04:03:04.524Z,14.10
2023-04-13T04:05:37.552Z,14.30
2023-04-13T04:08:08.451Z,14.30
2023-04-13T04:10:39.375Z,14.30
2023-04-13T04:13:11.045Z,14.20
2023-04-13T04:15:42.078Z,14.30
2023-04-13T04:18:13.070Z,14.30
2023-04-13T04:20:44.022Z,14.50
2023-04-13T04:23:16.402Z,14.50
2023-04-13T04:25:48.650Z,14.30
2023-04-13T04:28:19.548Z,13.90
2023-04-13T04:30:56.506Z,14.10
2023-04-13T04:33:27.792Z,14.00
2023-04-13T04:35:58.692Z,14.20
2023-04-13T04:38:30.490Z,13.60
2023-04-13T04:41:02.270Z,13.90
2023-04-13T04:43:33.184Z,14.20
2023-04-13T04:46:04.808Z,14.40
2023-04-13T04:48:37.650Z,14.30
2023-04-13T04:51:08.635Z,14.10
2023-04-13T04:53:39.510Z,13.90
2023-04-13T04:56:10.335Z,13.70
2023-04-13T04:58:41.252Z,13.70
2023-04-13T05:01:12.779Z,14.00
2023-04-13T05:03:43.781Z,14.30
2023-04-13T05:06:14.631Z,13.70
2023-04-13T05:08:46.227Z,14.10
2023-04-13T05:11:17.093Z,14.00
2023-04-13T05:13:48.092Z,13.30
2023-04-13T05:16:18.994Z,13.70
2023-04-13T05:18:50.394Z,13.90
2023-04-13T05:21:21.271Z,13.80
2023-04-13T05:23:52.154Z,14.10
2023-04-13T05:26:25.428Z,14.00
2023-04-13T05:28:57.270Z,13.50
2023-04-13T05:31:28.834Z,13.70
2023-04-13T05:33:59.862Z,13.70
2023-04-13T05:36:32.150Z,13.70
2023-04-13T05:39:03.105Z,13.80
2023-04-13T05:41:34.011Z,13.70
2023-04-13T05:44:04.980Z,14.00
2023-04-13T05:46:35.901Z,13.90
2023-04-13T05:49:06.978Z,14.60
2023-04-13T05:51:39.235Z,13.50
2023-04-13T05:54:10.526Z,14.00
2023-04-13T05:56:41.527Z,13.80
2023-04-13T05:59:12.506Z,13.60
2023-04-13T06:01:43.436Z,14.00
2023-04-13T06:04:15.888Z,13.90
2023-04-13T06:06:47.708Z,13.90
2023-04-13T06:09:19.213Z,14.60
2023-04-13T06:11:50.190Z,14.60
2023-04-13T06:14:22.233Z,14.70
2023-04-13T06:16:53.296Z,14.20
2023-04-13T06:19:25.960Z,14.00
2023-04-13T06:21:58.560Z,14.00
2023-04-13T06:24:29.608Z,14.40
2023-04-13T06:27:00.580Z,15.00
2023-04-13T06:29:31.945Z,15.00
2023-04-13T06:32:04.416Z,14.90
2023-04-13T06:34:35.734Z,14.10
2023-04-13T06:37:06.656Z,14.30
2023-04-13T06:39:37.903Z,13.30
2023-04-13T06:42:08.854Z,13.60
2023-04-13T06:44:39.722Z,14.30
2023-04-13T06:47:10.864Z,14.30
2023-04-13T06:49:42.399Z,14.20
2023-04-13T06:52:13.278Z,14.50
2023-04-13T06:54:44.139Z,13.90
2023-04-13T06:57:15.023Z,13.90
2023-04-13T06:59:45.929Z,13.30
2023-04-13T07:02:17.468Z,14.00
2023-04-13T07:04:48.629Z,13.40
2023-04-13T07:07:20.295Z,13.70
2023-04-13T07:09:51.666Z,14.00
2023-04-13T07:12:22.549Z,14.30
2023-04-13T07:14:53.890Z,14.30
2023-04-13T07:17:24.847Z,14.30
2023-04-13T07:19:55.841Z,14.00
2023-04-13T07:22:32.669Z,14.00
2023-04-13T07:25:04.140Z,14.40
2023-04-13T07:27:35.090Z,14.10
2023-04-13T07:30:08.410Z,14.00
2023-04-13T07:32:40.666Z,14.20
2023-04-13T07:35:11.563Z,14.60
2023-04-13T07:37:42.579Z,15.10
2023-04-13T07:40:13.611Z,14.30
2023-04-13T07:42:45.443Z,14.30
2023-04-13T07:45:17.999Z,14.30
2023-04-13T07:47:49.335Z,14.30
2023-04-13T07:50:20.415Z,14.20
2023-04-13T07:52:52.348Z,14.70
2023-04-13T07:55:23.432Z,14.50
2023-04-13T07:57:54.752Z,14.50
2023-04-13T08:00:25.901Z,14.30
2023-04-13T08:02:57.397Z,14.40
2023-04-13T08:05:28.497Z,14.30
2023-04-13T08:07:59.517Z,14.30
2023-04-13T08:10:30.613Z,14.70
2023-04-13T08:13:01.534Z,14.50
2023-04-13T08:15:32.699Z,13.90
2023-04-13T08:18:03.902Z,14.20
2023-04-13T08:20:35.239Z,14.20
2023-04-13T08:23:06.289Z,14.40
2023-04-13T08:25:41.309Z,14.60
2023-04-13T08:28:13.167Z,14.30
2023-04-13T08:30:44.394Z,14.50
2023-04-13T08:33:15.287Z,14.60
2023-04-13T08:35:46.322Z,14.20
2023-04-13T08:38:18.763Z,14.80
2023-04-13T08:40:50.479Z,14.50
2023-04-13T08:43:21.874Z,14.90
2023-04-13T08:45:53.192Z,15.60
2023-04-13T08:48:24.224Z,15.20
2023-04-13T08:50:58.388Z,15.40
2023-04-13T08:53:30.005Z,15.30
2023-04-13T08:56:02.075Z,14.70
2023-04-13T08:58:35.395Z,14.50
2023-04-13T09:01:06.506Z,14.30
2023-04-13T09:03:54.025Z,14.40
2023-04-13T09:06:35.629Z,15.00
2023-04-13T09:09:11.031Z,14.60
2023-04-13T09:11:43.388Z,14.70
2023-04-13T09:14:18.705Z,14.70
2023-04-13T09:16:50.426Z,14.80
2023-04-13T09:19:32.710Z,15.20
2023-04-13T09:22:14.313Z,15.60
2023-04-13T09:24:46.050Z,15.40
2023-04-13T09:27:24.064Z,15.40
2023-04-13T09:29:56.350Z,15.40
2023-04-13T09:32:28.628Z,15.20
2023-04-13T09:35:08.484Z,15.30
2023-04-13T09:37:41.860Z,15.70
2023-04-13T09:40:19.025Z,15.40
2023-04-13T09:43:04.816Z,15.30
2023-04-13T09:45:41.879Z,15.80
2023-04-13T09:48:21.685Z,16.20
2023-04-13T09:51:05.348Z,15.90
2023-04-13T09:53:47.293Z,16.20
2023-04-13T09:56:18.535Z,15.40
2023-04-13T09:58:50.445Z,15.70
2023-04-13T10:01:22.594Z,15.60
2023-04-13T10:03:53.671Z,15.50
2023-04-13T10:06:24.750Z,15.00
2023-04-13T10:08:55.645Z,14.90
2023-04-13T10:11:27.108Z,15.20
2023-04-13T10:14:09.136Z,14.80
2023-04-13T10:17:04.967Z,15.30
2023-04-13T10:19:54.078Z,15.00
2023-04-13T10:22:25.651Z,14.90
2023-04-13T10:24:56.847Z,15.00
2023-04-13T10:27:28.575Z,15.10
2023-04-13T10:30:00.893Z,15.10
2023-04-13T10:32:32.141Z,15.80
2023-04-13T10:35:12.402Z,15.60
2023-04-13T10:37:46.117Z,16.00
2023-04-13T10:40:17.076Z,16.10
2023-04-13T10:45:26.173Z,16.30
2023-04-13T10:48:00.577Z,16.50
2023-04-13T10:50:31.713Z,16.10
2023-04-13T10:53:07.653Z,15.80
2023-04-13T10:55:38.558Z,16.70
2023-04-13T10:58:17.441Z,17.20
2023-04-13T11:00:49.795Z,17.30
2023-04-13T11:03:21.726Z,16.60
2023-04-13T11:05:59.999Z,16.80
2023-04-13T11:08:32.624Z,16.60
2023-04-13T11:11:03.553Z,16.90
2023-04-13T11:13:34.491Z,17.00
2023-04-13T11:16:06.673Z,16.90
2023-04-13T11:18:37.650Z,16.60
2023-04-13T11:21:16.472Z,16.00
2023-04-13T11:23:53.921Z,16.40
2023-04-13T11:26:35.774Z,16.90
2023-04-13T11:29:16.982Z,16.80
2023-04-13T11:31:48.380Z,16.50
2023-04-13T11:34:26.487Z,16.40
2023-04-13T11:37:00.588Z,14.80
2023-04-13T11:39:32.316Z,15.20
2023-04-13T11:42:07.133Z,15.20
2023-04-13T11:44:38.836Z,14.50
2023-04-13T11:47:13.266Z,13.60
2023-04-13T11:49:48.054Z,13.70
2023-04-13T11:52:19.421Z,14.40
2023-04-13T11:54:51.059Z,14.90
2023-04-13T11:57:22.324Z,15.00
2023-04-13T11:59:53.462Z,15.10
2023-04-13T12:02:29.822Z,15.70
2023-04-13T12:05:01.622Z,16.00
2023-04-13T12:07:33.442Z,15.80
2023-04-13T12:10:06.663Z,15.70
2023-04-13T12:15:33.964Z,15.20
2023-04-13T12:18:14.637Z,15.00
2023-04-13T12:20:48.636Z,15.60
2023-04-13T12:23:25.009Z,15.60
2023-04-13T12:26:24.612Z,15.60
2023-04-13T12:28:59.774Z,16.00
2023-04-13T12:31:39.326Z,15.90
2023-04-13T12:34:10.342Z,16.00
2023-04-13T12:36:41.268Z,16.00
2023-04-13T12:39:12.169Z,15.90
2023-04-13T12:41:43.070Z,16.00
2023-04-13T12:44:14.817Z,15.90
2023-04-13T12:46:46.419Z,16.10
2023-04-13T12:49:17.357Z,16.20
2023-04-13T12:51:48.278Z,16.40
2023-04-13T12:54:19.215Z,16.40
2023-04-13T12:56:50.045Z,16.60
2023-04-13T12:59:23.360Z,16.60
2023-04-13T13:01:54.602Z,16.70
2023-04-13T13:04:25.746Z,16.70
2023-04-13T13:06:56.771Z,16.30
2023-04-13T13:09:28.170Z,16.20
2023-04-13T13:11:59.074Z,16.50
2023-04-13T13:14:31.504Z,16.70
2023-04-13T13:17:03.745Z,17.70
2023-04-13T13:19:34.810Z,17.00
2023-04-13T13:22:05.825Z,17.00
2023-04-13T13:24:36.740Z,17.10
2023-04-13T13:29:41.863Z,17.00
2023-04-13T13:32:12.872Z,17.30
2023-04-13T13:34:43.830Z,17.40
2023-04-13T13:37:14.733Z,17.90
2023-04-13T13:39:45.731Z,17.60
2023-04-13T13:42:17.254Z,17.80
2023-04-13T13:44:48.846Z,17.60
2023-04-13T13:47:19.911Z,17.20
2023-04-13T13:49:51.839Z,17.00
2023-04-13T13:52:22.767Z,17.80
2023-04-13T13:54:54.649Z,16.90
2023-04-13T13:57:25.671Z,17.90
2023-04-13T13:59:56.541Z,17.90
2023-04-13T14:02:27.531Z,17.70
2023-04-13T14:04:58.424Z,17.60
2023-04-13T14:07:29.348Z,18.00
2023-04-13T14:10:00.396Z,18.30
2023-04-13T14:12:31.352Z,17.30
2023-04-13T14:15:02.179Z,17.30
2023-04-13T14:17:33.121Z,17.20
2023-04-13T14:20:12.017Z,17.10
2023-04-13T14:22:43.154Z,17.20
2023-04-13T14:25:14.036Z,17.40
2023-04-13T14:27:44.948Z,17.00
2023-04-13T14:30:17.554Z,16.50
2023-04-13T14:32:49.417Z,16.50
2023-04-13T14:35:21.002Z,16.60
2023-04-13T14:37:52.832Z,17.10
2023-04-13T14:40:24.300Z,17.30
2023-04-13T14:42:55.234Z,17.30
2023-04-13T14:45:26.566Z,16.90
2023-04-13T14:47:57.646Z,16.90
2023-04-13T14:50:29.090Z,16.90
2023-04-13T14:53:00.238Z,16.70
2023-04-13T14:55:31.838Z,16.80
2023-04-13T14:58:03.615Z,17.00
2023-04-13T15:00:41.040Z,16.40
2023-04-13T15:03:13.490Z,15.30
2023-04-13T15:05:49.877Z,15.50
2023-04-13T15:08:21.683Z,15.90
2023-04-13T15:10:53.684Z,15.20
2023-04-13T15:13:24.653Z,14.60
2023-04-13T15:15:55.502Z,15.00
2023-04-13T15:18:26.371Z,15.10
2023-04-13T15:21:01.811Z,15.40
2023-04-13T15:23:33.662Z,15.80
2023-04-13T15:26:04.956Z,15.60
2023-04-13T15:28:37.894Z,15.70
2023-04-13T15:31:08.796Z,15.40
2023-04-13T15:33:39.689Z,15.30
2023-04-13T15:36:15.946Z,15.50
2023-04-13T15:38:46.861Z,15.90
2023-04-13T15:41:19.965Z,15.90
2023-04-13T15:43:51.299Z,15.90
2023-04-13T15:46:22.326Z,16.00
2023-04-13T15:48:54.810Z,15.70
2023-04-13T15:51:27.767Z,15.70
2023-04-13T15:53:58.605Z,15.60
2023-04-13T15:56:29.598Z,15.00
2023-04-13T15:59:00.628Z,14.90
2023-04-13T16:01:48.895Z,14.70
2023-04-13T16:04:20.117Z,14.90
2023-04-13T16:07:05.109Z,15.00
2023-04-13T16:09:44.117Z,14.90
2023-04-13T16:12:15.059Z,15.00
2023-04-13T16:14:45.959Z,15.50
2023-04-13T16:17:30.965Z,15.70
2023-04-13T16:20:13.936Z,16.00
2023-04-13T16:22:50.603Z,15.90
2023-04-13T16:25:21.694Z,16.20
2023-04-13T16:27:54.863Z,15.10
2023-04-13T16:30:27.919Z,15.90
2023-04-13T16:32:58.970Z,16.00
2023-04-13T16:35:30.002Z,15.80
2023-04-13T16:38:00.922Z,16.40
2023-04-13T16:40:31.912Z,16.30
2023-04-13T16:43:07.451Z,16.10
2023-04-13T16:45:38.584Z,15.50
2023-04-13T16:48:09.573Z,15.90
2023-04-13T16:50:40.647Z,15.40
2023-04-13T16:53:11.727Z,15.40
2023-04-13T16:55:42.584Z,15.20
2023-04-13T16:58:13.495Z,15.30
2023-04-13T17:00:48.332Z,15.70
2023-04-13T17:03:19.819Z,16.20
2023-04-13T17:05:50.794Z,15.50
2023-04-13T17:08:21.995Z,15.70
2023-04-13T17:10:52.910Z,15.70
2023-04-13T17:13:23.900Z,15.40
2023-04-13T17:15:54.818Z,15.60
2023-04-13T17:18:25.905Z,15.50
2023-04-13T17:20:56.997Z,15.70
2023-04-13T17:23:27.907Z,15.60
2023-04-13T17:25:58.840Z,15.70
2023-04-13T17:28:30.057Z,15.40
2023-04-13T17:31:01.532Z,15.40
2023-04-13T17:33:33.173Z,15.40
2023-04-13T17:36:04.167Z,15.40
2023-04-13T17:38:35.689Z,15.40
2023-04-13T17:41:06.760Z,15.30
2023-04-13T17:43:39.709Z,15.30
2023-04-13T17:46:12.470Z,15.20
2023-04-13T17:48:43.416Z,15.30
2023-04-13T17:51:14.319Z,15.30
2023-04-13T17:53:45.208Z,15.30
2023-04-13T17:56:19.431Z,15.40
2023-04-13T17:58:50.477Z,15.30
2023-04-13T18:01:25.658Z,15.40
2023-04-13T18:03:59.332Z,15.60
2023-04-13T18:06:31.617Z,15.60
2023-04-13T18:09:02.500Z,15.70
2023-04-13T18:11:33.774Z,15.50
2023-04-13T18:14:05.431Z,15.40
2023-04-13T18:16:36.649Z,15.40
2023-04-13T18:19:11.241Z,15.30
2023-04-13T18:21:43.779Z,15.20
2023-04-13T18:24:14.637Z,15.30
2023-04-13T18:26:45.634Z,15.20
2023-04-13T18:29:16.644Z,15.10
2023-04-13T18:31:47.551Z,15.10
2023-04-13T18:34:18.674Z,15.20
2023-04-13T18:36:49.728Z,15.10
2023-04-13T18:39:20.738Z,15.20
2023-04-13T18:44:36.396Z,14.90
2023-04-13T18:47:07.362Z,14.70
2023-04-13T18:49:38.227Z,14.60
2023-04-13T18:52:09.173Z,14.60
2023-04-13T18:54:40.961Z,14.60
2023-04-13T18:57:11.881Z,14.60
2023-04-13T18:59:44.284Z,14.60
2023-04-13T19:02:15.605Z,14.50
2023-04-13T19:04:46.744Z,14.60
2023-04-13T19:07:18.086Z,14.80
2023-04-13T19:09:49.011Z,14.70
2023-04-13T19:12:20.618Z,14.40
2023-04-13T19:14:51.487Z,14.30
2023-04-13T19:17:27.074Z,14.40
2023-04-13T19:19:57.972Z,14.30
2023-04-13T19:22:28.953Z,14.10
2023-04-13T19:24:59.888Z,14.30
2023-04-13T19:27:31.216Z,14.00
2023-04-13T19:30:02.107Z,14.40
2023-04-13T19:32:33.074Z,14.50
2023-04-13T19:35:06.199Z,14.20
2023-04-13T19:37:38.205Z,14.10
2023-04-13T19:40:10.349Z,14.10
2023-04-13T19:42:46.295Z,14.00
2023-04-13T19:45:17.887Z,14.00
2023-04-13T19:47:48.993Z,14.10
2023-04-13T19:50:20.026Z,14.10
2023-04-13T19:52:52.905Z,13.80
2023-04-13T19:55:24.213Z,14.00
2023-04-13T19:57:55.398Z,14.30
2023-04-13T20:00:30.466Z,14.40
2023-04-13T20:03:03.155Z,14.10
2023-04-13T20:05:38.178Z,13.90
2023-04-13T20:08:09.392Z,13.80
2023-04-13T20:10:40.428Z,14.20
2023-04-13T20:13:11.276Z,14.20
2023-04-13T20:15:42.354Z,14.20
2023-04-13T20:18:13.437Z,14.00
2023-04-13T20:20:44.973Z,13.80
2023-04-13T20:23:15.943Z,13.80
2023-04-13T20:25:46.891Z,13.60
2023-04-13T20:28:17.963Z,13.90
2023-04-13T20:30:49.061Z,14.00
2023-04-13T20:33:19.968Z,13.80
2023-04-13T20:35:54.060Z,13.80
2023-04-13T20:38:24.947Z,13.80
2023-04-13T20:40:57.115Z,13.90
2023-04-13T20:43:27.960Z,13.90
2023-04-13T20:45:58.860Z,13.90
2023-04-13T20:51:08.016Z,14.40
2023-04-13T20:53:38.995Z,14.10
2023-04-13T20:56:10.176Z,14.10
2023-04-13T20:58:41.254Z,14.50
2023-04-13T21:01:12.979Z,14.60
2023-04-13T21:03:44.063Z,14.50
2023-04-13T21:06:16.984Z,13.90
2023-04-13T21:08:48.038Z,14.30
2023-04-13T21:11:18.906Z,14.50
2023-04-13T21:13:50.031Z,14.50
2023-04-13T21:16:21.398Z,14.10
2023-04-13T21:18:53.827Z,14.50
2023-04-13T21:21:25.348Z,14.60
2023-04-13T21:23:56.698Z,14.60
2023-04-13T21:26:28.029Z,14.70
2023-04-13T21:28:58.880Z,14.50
2023-04-13T21:31:29.857Z,14.60
2023-04-13T21:34:00.981Z,14.30
2023-04-13T21:39:06.140Z,14.30
2023-04-13T21:41:40.464Z,14.20
2023-04-13T21:44:26.504Z,14.10
2023-04-13T21:46:59.559Z,14.10
2023-04-13T21:49:30.617Z,14.00
2023-04-13T21:52:01.491Z,14.00
2023-04-13T21:54:32.393Z,14.00
2023-04-13T21:57:04.384Z,14.30
2023-04-13T21:59:35.743Z,14.50
2023-04-13T22:02:06.825Z,14.60
2023-04-13T22:04:37.771Z,14.40
2023-04-13T22:07:08.801Z,14.30
2023-04-13T22:09:39.720Z,14.20
2023-04-13T22:12:11.158Z,14.10
2023-04-13T22:14:42.084Z,14.30
2023-04-13T22:17:14.493Z,14.10
2023-04-13T22:19:45.692Z,14.10
2023-04-13T22:22:16.565Z,14.20
2023-04-13T22:24:47.490Z,14.20
2023-04-13T22:27:18.396Z,14.40
2023-04-13T22:29:49.275Z,14.50
2023-04-13T22:32:20.217Z,14.30
2023-04-13T22:34:51.123Z,14.20
2023-04-13T22:37:22.048Z,14.20
2023-04-13T22:39:52.938Z,14.10
2023-04-13T22:42:23.812Z,14.50
2023-04-13T22:44:54.811Z,14.50
2023-04-13T22:47:26.312Z,14.80
2023-04-13T22:50:00.221Z,14.70
2023-04-13T22:52:31.302Z,14.40
2023-04-13T22:55:02.363Z,14.00
2023-04-13T22:57:33.281Z,14.70
2023-04-13T23:00:05.771Z,14.40
2023-04-13T23:02:36.896Z,14.60
2023-04-13T23:05:11.410Z,14.70
2023-04-13T23:07:42.347Z,14.70
2023-04-13T23:10:15.251Z,14.70
2023-04-13T23:12:47.478Z,14.70
2023-04-13T23:15:18.544Z,14.70
2023-04-13T23:17:54.071Z,14.80
2023-04-13T23:20:27.293Z,14.40
2023-04-13T23:22:58.276Z,14.40
2023-04-13T23:25:29.244Z,14.20
2023-04-13T23:28:00.385Z,14.20
2023-04-13T23:30:31.312Z,13.90
2023-04-13T23:33:02.339Z,13.90
2023-04-13T23:35:33.336Z,13.80
2023-04-13T23:38:04.197Z,13.80
2023-04-13T23:40:35.267Z,13.80
2023-04-13T23:43:06.124Z,13.80
2023-04-13T23:45:37.094Z,13.60
2023-04-13T23:48:08.140Z,13.50
2023-04-13T23:50:39.103Z,13.60
2023-04-13T23:53:10.164Z,13.40
2023-04-13T23:55:41.702Z,13.50
2023-04-13T23:58:12.821Z,13.60
